Phoenix, Arizona
Traffic Map
Current Weather Conditions
Phoenix, Arizona
Broken Clouds
Broken Clouds
21°
Feels Like: 21°
Wind Chill: 21° Ceiling: 9000
Heat Index: 21° Visibility: 10mi
Dew Point: Wind: 3mph
Humidity: 41% Direction: 210° (SSW)
Pressure: 29.88in Gusts: 0mph
Raw Report DataKPHX 020251Z 21003KT 10SM FEW075 BKN090 BKN160 BKN190 21/07 A2988 RMK AO2 SLP107 T02110072 53009
Traffic Incident Summary
Active as of:
Severity:
Category:
InformationThere was an issue retrieving the traffic information for this location. Please try a different location or try again shortly.
Advertisements
Track Severe Weather on mobile